createdAt,value
2022-12-27T00:00:14.224Z,61.87
2022-12-27T00:03:03.023Z,55.29
2022-12-27T00:05:31.665Z,53.25
2022-12-27T00:08:00.160Z,53.85
2022-12-27T00:10:29.027Z,54.93
2022-12-27T00:12:57.774Z,55.83
2022-12-27T00:15:27.360Z,58.19
2022-12-27T00:17:55.984Z,59.32
2022-12-27T00:20:24.517Z,59.87
2022-12-27T00:22:53.050Z,61.53
2022-12-27T00:25:21.889Z,65.67
2022-12-27T00:27:50.485Z,66.90
2022-12-27T00:30:19.126Z,64.53
2022-12-27T00:32:47.670Z,58.85
2022-12-27T00:35:16.308Z,54.46
2022-12-27T00:37:44.747Z,54.67
2022-12-27T00:40:13.559Z,56.24
2022-12-27T00:42:42.090Z,57.19
2022-12-27T00:45:11.241Z,58.36
2022-12-27T00:47:40.468Z,59.60
2022-12-27T00:50:09.429Z,60.60
2022-12-27T00:52:37.912Z,64.61
2022-12-27T00:55:06.570Z,66.23
2022-12-27T00:57:35.075Z,63.58
2022-12-27T01:00:10.140Z,58.43
2022-12-27T01:02:39.262Z,54.93
2022-12-27T01:05:08.330Z,54.88
2022-12-27T01:07:36.814Z,56.26
2022-12-27T01:10:05.794Z,57.79
2022-12-27T01:12:35.707Z,59.18
2022-12-27T01:15:07.383Z,60.43
2022-12-27T01:17:36.457Z,64.58
2022-12-27T01:20:05.547Z,66.57
2022-12-27T01:22:34.280Z,63.99
2022-12-27T01:25:02.809Z,57.79
2022-12-27T01:27:31.256Z,54.96
2022-12-27T01:29:59.916Z,55.17
2022-12-27T01:32:28.628Z,56.35
2022-12-27T01:34:57.140Z,58.26
2022-12-27T01:37:27.992Z,59.40
2022-12-27T01:39:56.764Z,60.54
2022-12-27T01:42:44.364Z,64.79
2022-12-27T01:45:27.706Z,68.02
2022-12-27T01:48:05.567Z,64.33
2022-12-27T01:50:34.049Z,58.99
2022-12-27T01:53:08.659Z,55.12
2022-12-27T01:55:49.122Z,55.44
2022-12-27T01:58:27.109Z,57.01
2022-12-27T02:00:57.399Z,58.15
2022-12-27T02:03:50.342Z,59.12
2022-12-27T02:06:21.274Z,59.40
2022-12-27T02:09:21.025Z,64.79
2022-12-27T02:11:56.404Z,68.31
2022-12-27T02:14:36.283Z,62.70
2022-12-27T02:17:11.378Z,56.81
2022-12-27T02:19:54.754Z,54.34
2022-12-27T02:22:57.102Z,54.90
2022-12-27T02:25:44.265Z,55.86
2022-12-27T02:28:47.114Z,58.48
2022-12-27T02:31:23.175Z,58.94
2022-12-27T02:33:53.284Z,61.25
2022-12-27T02:36:26.640Z,66.13
2022-12-27T02:38:59.619Z,68.37
2022-12-27T02:41:51.191Z,63.39
2022-12-27T02:44:38.978Z,58.75
2022-12-27T02:47:39.891Z,54.90
2022-12-27T02:50:31.131Z,56.12
2022-12-27T02:53:08.671Z,57.55
2022-12-27T02:56:08.199Z,58.32
2022-12-27T02:59:01.650Z,58.59
2022-12-27T03:02:17.457Z,61.04
2022-12-27T03:05:19.765Z,67.95
2022-12-27T03:08:13.025Z,68.10
2022-12-27T03:11:17.063Z,62.73
2022-12-27T03:14:20.327Z,56.05
2022-12-27T03:16:57.716Z,53.38
2022-12-27T03:20:06.809Z,55.43
2022-12-27T03:22:56.533Z,56.00
2022-12-27T03:25:29.029Z,58.50
2022-12-27T03:28:23.641Z,59.52
2022-12-27T03:31:19.195Z,60.74
2022-12-27T03:33:50.679Z,67.30
2022-12-27T03:36:42.514Z,67.78
2022-12-27T03:39:30.800Z,62.76
2022-12-27T03:42:24.339Z,56.29
2022-12-27T03:44:53.183Z,53.51
2022-12-27T03:47:47.547Z,54.83
2022-12-27T03:50:29.696Z,55.82
2022-12-27T03:53:10.396Z,57.69
2022-12-27T03:55:39.597Z,58.92
2022-12-27T03:58:08.974Z,59.95
2022-12-27T04:00:37.477Z,64.64
2022-12-27T04:03:06.269Z,66.78
2022-12-27T04:05:35.080Z,60.98
2022-12-27T04:08:22.424Z,55.59
2022-12-27T04:11:09.934Z,53.51
2022-12-27T04:13:57.259Z,55.05
2022-12-27T04:16:44.649Z,56.68
2022-12-27T04:19:31.887Z,57.45
2022-12-27T04:22:18.868Z,59.28
2022-12-27T04:25:06.224Z,60.42
2022-12-27T04:27:53.607Z,66.75
2022-12-27T04:30:40.828Z,68.30
2022-12-27T04:33:27.915Z,62.87
2022-12-27T04:36:00.170Z,56.14
2022-12-27T04:38:31.787Z,53.51
2022-12-27T04:41:19.358Z,54.43
2022-12-27T04:44:14.635Z,54.85
2022-12-27T04:47:01.743Z,57.40
2022-12-27T04:49:49.996Z,58.66
2022-12-27T04:52:42.336Z,59.46
2022-12-27T04:55:19.012Z,66.18
2022-12-27T04:57:47.785Z,66.96
2022-12-27T05:00:36.996Z,62.82
2022-12-27T05:03:10.173Z,56.01
2022-12-27T05:05:40.347Z,53.87
2022-12-27T05:08:28.165Z,54.68
2022-12-27T05:11:15.703Z,56.27
2022-12-27T05:13:59.822Z,57.24
2022-12-27T05:16:35.707Z,59.88
2022-12-27T05:19:06.991Z,60.92
2022-12-27T05:22:06.506Z,66.54
2022-12-27T05:24:58.085Z,67.35
2022-12-27T05:27:26.701Z,64.70
2022-12-27T05:29:55.322Z,55.00
2022-12-27T05:32:24.085Z,52.33
2022-12-27T05:34:53.005Z,53.25
2022-12-27T05:37:21.787Z,54.65
2022-12-27T05:39:50.393Z,56.19
2022-12-27T05:42:19.154Z,57.54
2022-12-27T05:44:47.604Z,58.79
2022-12-27T05:47:16.214Z,60.12
2022-12-27T05:49:44.759Z,64.84
2022-12-27T05:52:14.007Z,67.17
2022-12-27T05:54:42.612Z,63.00
2022-12-27T05:57:11.120Z,57.21
2022-12-27T05:59:39.629Z,54.60
2022-12-27T06:02:08.319Z,54.94
2022-12-27T06:04:36.996Z,56.64
2022-12-27T06:07:05.549Z,58.16
2022-12-27T06:09:34.127Z,58.75
2022-12-27T06:12:02.639Z,60.29
2022-12-27T06:14:31.344Z,65.41
2022-12-27T06:16:59.960Z,68.03
2022-12-27T06:19:28.473Z,65.98
2022-12-27T06:21:56.927Z,62.22
2022-12-27T06:24:25.609Z,56.35
2022-12-27T06:26:54.178Z,54.07
2022-12-27T06:29:22.646Z,54.69
2022-12-27T06:31:51.365Z,55.78
2022-12-27T06:34:19.960Z,57.31
2022-12-27T06:36:51.049Z,58.31
2022-12-27T06:39:20.119Z,59.78
2022-12-27T06:41:50.573Z,61.53
2022-12-27T06:44:19.192Z,65.89
2022-12-27T06:46:47.798Z,68.34
2022-12-27T06:49:16.536Z,65.07
2022-12-27T06:51:45.210Z,59.20
2022-12-27T06:54:13.857Z,55.95
2022-12-27T06:56:44.383Z,57.63
2022-12-27T06:59:16.966Z,59.59
2022-12-27T07:01:45.953Z,59.38
2022-12-27T07:04:14.562Z,60.38
2022-12-27T07:06:43.088Z,64.24
2022-12-27T07:09:11.828Z,67.27
2022-12-27T07:11:40.334Z,62.04
2022-12-27T07:14:10.649Z,56.63
2022-12-27T07:16:39.782Z,54.11
2022-12-27T07:19:10.180Z,55.79
2022-12-27T07:21:38.650Z,56.91
2022-12-27T07:24:07.411Z,57.66
2022-12-27T07:26:35.932Z,59.63
2022-12-27T07:29:04.482Z,61.09
2022-12-27T07:31:34.166Z,65.48
2022-12-27T07:34:04.257Z,65.38
2022-12-27T07:36:39.748Z,61.16
2022-12-27T07:39:09.212Z,55.21
2022-12-27T07:41:37.860Z,54.03
2022-12-27T07:44:07.230Z,56.20
2022-12-27T07:46:36.278Z,56.96
2022-12-27T07:49:04.799Z,58.55
2022-12-27T07:51:33.486Z,59.46
2022-12-27T07:54:02.059Z,60.71
2022-12-27T07:56:30.553Z,63.96
2022-12-27T07:59:00.860Z,66.45
2022-12-27T08:01:54.911Z,63.71
2022-12-27T08:04:24.602Z,56.46
2022-12-27T08:07:04.707Z,53.75
2022-12-27T08:09:37.894Z,54.54
2022-12-27T08:12:08.278Z,56.16
2022-12-27T08:14:37.478Z,57.97
2022-12-27T08:17:18.382Z,58.32
2022-12-27T08:19:47.284Z,58.98
2022-12-27T08:22:16.931Z,60.64
2022-12-27T08:24:45.575Z,65.54
2022-12-27T08:27:22.162Z,66.31
2022-12-27T08:29:50.718Z,64.44
2022-12-27T08:32:19.311Z,57.92
2022-12-27T08:34:47.846Z,55.06
2022-12-27T08:37:16.660Z,55.24
2022-12-27T08:39:45.229Z,56.10
2022-12-27T08:42:14.216Z,56.94
2022-12-27T08:44:42.680Z,58.24
2022-12-27T08:47:11.234Z,59.72
2022-12-27T08:49:39.687Z,64.26
2022-12-27T08:52:08.327Z,65.65
2022-12-27T08:54:37.306Z,58.61
2022-12-27T08:57:06.086Z,54.56
2022-12-27T08:59:34.535Z,55.07
2022-12-27T09:02:03.248Z,55.90
2022-12-27T09:04:31.952Z,57.48
2022-12-27T09:07:00.475Z,58.68
2022-12-27T09:09:29.302Z,59.89
2022-12-27T09:11:57.849Z,61.31
2022-12-27T09:14:26.346Z,66.10
2022-12-27T09:16:54.898Z,65.90
2022-12-27T09:19:23.480Z,61.41
2022-12-27T09:21:52.036Z,56.83
2022-12-27T09:24:20.579Z,54.00
2022-12-27T09:26:49.251Z,54.78
2022-12-27T09:29:18.438Z,56.17
2022-12-27T09:31:46.924Z,56.66
2022-12-27T09:34:15.419Z,58.14
2022-12-27T09:36:43.998Z,59.85
2022-12-27T09:39:14.004Z,60.45
2022-12-27T09:45:17.411Z,66.04
2022-12-27T09:47:58.615Z,58.30
2022-12-27T09:50:33.336Z,54.86
2022-12-27T09:53:17.488Z,55.55
2022-12-27T09:55:49.896Z,57.78
2022-12-27T09:58:23.041Z,58.89
2022-12-27T10:00:52.077Z,59.80
2022-12-27T10:03:26.621Z,60.72
2022-12-27T10:06:06.900Z,66.10
2022-12-27T10:09:09.353Z,64.84
2022-12-27T10:11:55.938Z,61.89
2022-12-27T10:14:50.247Z,54.65
2022-12-27T10:17:53.245Z,53.01
2022-12-27T10:20:41.230Z,54.32
2022-12-27T10:23:18.255Z,57.00
2022-12-27T10:25:47.264Z,58.38
2022-12-27T10:28:23.072Z,59.59
2022-12-27T10:30:53.180Z,61.35
2022-12-27T10:33:30.387Z,65.44
2022-12-27T10:35:59.009Z,67.81
2022-12-27T10:38:33.668Z,61.86
2022-12-27T10:41:14.289Z,55.26
2022-12-27T10:43:44.542Z,53.00
2022-12-27T10:46:33.840Z,54.82
2022-12-27T10:49:20.538Z,55.28
2022-12-27T10:51:52.477Z,58.26
2022-12-27T10:54:23.381Z,58.94
2022-12-27T10:56:53.054Z,60.44
2022-12-27T10:59:27.537Z,63.65
2022-12-27T11:02:02.713Z,66.29
2022-12-27T11:04:32.647Z,61.49
2022-12-27T11:07:02.466Z,55.76
2022-12-27T11:09:33.929Z,53.99
2022-12-27T11:12:19.654Z,55.52
2022-12-27T11:15:18.731Z,56.66
2022-12-27T11:17:54.159Z,58.60
2022-12-27T11:20:28.689Z,60.27
2022-12-27T11:23:04.760Z,62.87
2022-12-27T11:25:34.821Z,66.66
2022-12-27T11:28:15.351Z,60.82
2022-12-27T11:30:56.115Z,55.91
2022-12-27T11:33:50.622Z,54.74
2022-12-27T11:36:25.595Z,56.29
2022-12-27T11:38:54.281Z,57.96
2022-12-27T11:41:49.349Z,58.86
2022-12-27T11:44:37.375Z,60.93
2022-12-27T11:47:14.570Z,65.90
2022-12-27T11:49:48.915Z,65.01
2022-12-27T11:52:29.649Z,61.25
2022-12-27T11:55:20.067Z,54.48
2022-12-27T11:58:20.821Z,52.99
2022-12-27T12:01:12.399Z,52.44
2022-12-27T12:03:59.258Z,54.86
2022-12-27T12:06:36.735Z,56.10
2022-12-27T12:09:15.574Z,57.93
2022-12-27T12:12:02.487Z,58.95
2022-12-27T12:15:08.725Z,59.72
2022-12-27T12:18:14.486Z,60.73
2022-12-27T12:21:11.349Z,67.01
2022-12-27T12:23:53.772Z,62.04
2022-12-27T12:26:27.145Z,55.31
2022-12-27T12:29:17.364Z,54.38
2022-12-27T12:32:20.201Z,55.39
2022-12-27T12:35:06.995Z,56.12
2022-12-27T12:37:58.329Z,57.05
2022-12-27T12:40:33.180Z,58.00
2022-12-27T12:43:10.678Z,59.65
2022-12-27T12:45:51.266Z,61.11
2022-12-27T12:48:31.855Z,65.32
2022-12-27T12:51:22.867Z,65.23
2022-12-27T12:54:13.224Z,57.60
2022-12-27T12:57:39.967Z,54.08
2022-12-27T13:00:27.907Z,54.98
2022-12-27T13:03:34.101Z,57.55
2022-12-27T13:06:30.619Z,59.31
2022-12-27T13:09:24.802Z,58.89
2022-12-27T13:12:08.279Z,61.68
2022-12-27T13:14:39.897Z,65.53
2022-12-27T13:17:19.470Z,63.87
2022-12-27T13:20:18.033Z,58.24
2022-12-27T13:23:17.855Z,55.32
2022-12-27T13:25:55.501Z,56.20
2022-12-27T13:28:29.348Z,57.70
2022-12-27T13:31:03.241Z,60.17
2022-12-27T13:34:03.766Z,64.86
2022-12-27T13:37:09.728Z,65.53
2022-12-27T13:40:14.397Z,57.02
2022-12-27T13:43:05.884Z,56.29
2022-12-27T13:45:56.439Z,57.91
2022-12-27T13:48:43.640Z,60.23
2022-12-27T13:51:27.096Z,64.45
2022-12-27T13:54:23.457Z,64.69
2022-12-27T13:57:24.728Z,61.29
2022-12-27T14:00:17.319Z,56.85
2022-12-27T14:10:44.762Z,65.15
2022-12-27T14:13:18.589Z,65.80
2022-12-27T14:16:11.921Z,62.80
2022-12-27T14:19:17.856Z,57.13
2022-12-27T14:22:26.743Z,55.99
2022-12-27T14:25:18.369Z,58.29
2022-12-27T14:27:47.004Z,59.80
2022-12-27T14:30:37.350Z,65.71
2022-12-27T14:33:24.272Z,66.89
2022-12-27T14:36:27.128Z,62.42
2022-12-27T14:38:58.460Z,56.82
2022-12-27T14:41:49.956Z,56.17
2022-12-27T14:44:43.324Z,58.27
2022-12-27T14:47:30.523Z,58.70
2022-12-27T14:50:40.954Z,60.29
2022-12-27T14:53:09.473Z,67.30
2022-12-27T14:55:56.655Z,65.97
2022-12-27T14:58:46.206Z,62.99
2022-12-27T15:02:00.691Z,57.06
2022-12-27T15:04:54.482Z,56.21
2022-12-27T15:07:38.624Z,58.71
2022-12-27T15:10:13.175Z,60.18
2022-12-27T15:12:53.808Z,65.64
2022-12-27T15:15:42.688Z,65.29
2022-12-27T15:18:26.649Z,63.42
2022-12-27T15:21:19.971Z,58.18
2022-12-27T15:24:20.815Z,55.76
2022-12-27T15:26:58.586Z,57.26
2022-12-27T15:29:38.827Z,60.49
2022-12-27T15:32:20.953Z,64.74
2022-12-27T15:35:04.142Z,65.42
2022-12-27T15:37:47.849Z,61.34
2022-12-27T15:40:38.871Z,57.03
2022-12-27T15:43:22.865Z,55.55
2022-12-27T15:45:53.275Z,56.29
2022-12-27T15:49:02.510Z,58.95
2022-12-27T15:51:57.551Z,59.99
2022-12-27T15:54:53.483Z,66.19
2022-12-27T15:57:50.474Z,66.51
2022-12-27T16:00:24.827Z,60.30
2022-12-27T16:02:57.070Z,55.82
2022-12-27T16:05:25.890Z,55.03
2022-12-27T16:08:00.120Z,56.82
2022-12-27T16:10:31.800Z,57.83
2022-12-27T16:13:27.684Z,60.09
2022-12-27T16:15:56.958Z,66.20
2022-12-27T16:18:31.560Z,65.49
2022-12-27T16:21:19.100Z,62.00
2022-12-27T16:23:47.526Z,57.45
2022-12-27T16:26:19.771Z,55.50
2022-12-27T16:29:12.826Z,56.47
2022-12-27T16:42:30.250Z,61.34
2022-12-27T16:45:22.786Z,65.49
2022-12-27T16:48:07.499Z,65.51
2022-12-27T16:50:54.674Z,61.51
2022-12-27T16:53:43.960Z,56.70
2022-12-27T16:56:29.132Z,54.82
2022-12-27T16:58:57.758Z,56.68
2022-12-27T17:01:26.658Z,58.32
2022-12-27T17:03:56.867Z,60.48
2022-12-27T17:06:35.472Z,64.67
2022-12-27T17:09:10.207Z,66.77
2022-12-27T17:11:51.890Z,62.62
2022-12-27T17:14:25.472Z,57.92
2022-12-27T17:17:03.213Z,55.99
2022-12-27T17:20:05.547Z,57.10
2022-12-27T17:22:35.791Z,58.27
2022-12-27T17:25:05.368Z,60.27
2022-12-27T17:27:38.043Z,64.94
2022-12-27T17:30:20.653Z,66.80
2022-12-27T17:33:01.678Z,64.54
2022-12-27T17:36:08.997Z,60.99
2022-12-27T17:38:52.655Z,55.14
2022-12-27T17:42:24.743Z,54.26
2022-12-27T17:45:12.759Z,55.86
2022-12-27T17:48:29.689Z,57.69
2022-12-27T17:51:05.185Z,58.11
2022-12-27T17:53:52.417Z,63.98
2022-12-27T17:56:42.077Z,67.24
2022-12-27T17:59:28.501Z,64.24
2022-12-27T18:02:04.770Z,58.03
2022-12-27T18:04:47.275Z,55.06
2022-12-27T18:07:22.331Z,56.25
2022-12-27T18:10:00.044Z,57.50
2022-12-27T18:12:33.729Z,59.03
2022-12-27T18:15:02.376Z,60.12
2022-12-27T18:17:40.235Z,64.80
2022-12-27T18:20:29.737Z,66.82
2022-12-27T18:23:03.193Z,62.75
2022-12-27T18:25:33.317Z,57.16
2022-12-27T18:28:12.935Z,56.52
2022-12-27T18:31:22.660Z,56.59
2022-12-27T18:33:55.203Z,58.31
2022-12-27T18:36:32.457Z,60.68
2022-12-27T18:39:27.164Z,65.59
2022-12-27T18:41:57.115Z,65.10
2022-12-27T18:44:28.684Z,62.57
2022-12-27T18:47:02.021Z,57.05
2022-12-27T18:49:36.282Z,54.38
2022-12-27T18:52:15.169Z,55.33
2022-12-27T18:54:43.752Z,56.31
2022-12-27T18:57:31.344Z,58.49
2022-12-27T19:00:13.321Z,58.63
2022-12-27T19:02:42.578Z,60.04
2022-12-27T19:05:20.509Z,64.89
2022-12-27T19:08:14.866Z,66.64
2022-12-27T19:10:52.332Z,63.70
2022-12-27T19:13:26.517Z,58.46
2022-12-27T19:15:57.758Z,55.54
2022-12-27T19:18:37.061Z,56.60
2022-12-27T19:21:06.827Z,57.53
2022-12-27T19:23:38.179Z,58.51
2022-12-27T19:26:31.481Z,59.43
2022-12-27T19:29:01.966Z,60.25
2022-12-27T19:31:31.161Z,65.22
2022-12-27T19:34:06.337Z,67.71
2022-12-27T19:36:38.723Z,64.76
2022-12-27T19:39:15.890Z,59.04
2022-12-27T19:41:44.344Z,56.66
2022-12-27T19:44:12.948Z,56.28
2022-12-27T19:46:41.410Z,57.28
2022-12-27T19:51:58.978Z,58.68
2022-12-27T19:54:27.889Z,60.28
2022-12-27T19:56:57.134Z,65.13
2022-12-27T19:59:25.633Z,67.22
2022-12-27T20:01:54.332Z,64.30
2022-12-27T20:04:23.574Z,59.03
2022-12-27T20:06:52.080Z,55.13
2022-12-27T20:09:20.911Z,55.62
2022-12-27T20:11:50.111Z,56.90
2022-12-27T20:14:18.652Z,57.35
2022-12-27T20:16:47.562Z,59.11
2022-12-27T20:19:18.288Z,60.47
2022-12-27T20:21:47.236Z,61.26
2022-12-27T20:24:15.831Z,65.84
2022-12-27T20:26:44.449Z,66.48
2022-12-27T20:29:15.230Z,64.39
2022-12-27T20:31:48.637Z,58.83
2022-12-27T20:34:17.281Z,54.82
2022-12-27T20:36:45.889Z,55.15
2022-12-27T20:39:14.504Z,56.13
2022-12-27T20:41:43.193Z,57.51
2022-12-27T20:44:13.804Z,59.16
2022-12-27T20:46:42.322Z,60.75
2022-12-27T20:49:10.857Z,64.68
2022-12-27T20:51:41.621Z,66.04
2022-12-27T20:54:12.198Z,63.80
2022-12-27T20:56:40.876Z,59.50
2022-12-27T20:59:09.291Z,55.45
2022-12-27T21:01:37.951Z,55.21
2022-12-27T21:04:07.578Z,56.12
2022-12-27T21:06:36.076Z,58.12
2022-12-27T21:09:05.502Z,59.10
2022-12-27T21:11:34.555Z,60.37
2022-12-27T21:14:04.647Z,64.61
2022-12-27T21:16:35.206Z,65.75
2022-12-27T21:19:05.284Z,63.90
2022-12-27T21:21:37.329Z,58.68
2022-12-27T21:24:07.998Z,55.90
2022-12-27T21:26:38.404Z,56.44
2022-12-27T21:29:09.363Z,57.71
2022-12-27T21:31:38.608Z,59.36
2022-12-27T21:34:08.057Z,59.64
2022-12-27T21:36:38.426Z,61.10
2022-12-27T21:39:07.653Z,65.13
2022-12-27T21:41:39.328Z,66.57
2022-12-27T21:44:07.888Z,65.14
2022-12-27T21:46:39.359Z,59.10
2022-12-27T21:49:10.990Z,55.50
2022-12-27T21:51:41.701Z,56.01
2022-12-27T21:54:11.535Z,57.69
2022-12-27T21:56:40.420Z,58.38
2022-12-27T21:59:12.032Z,59.06
2022-12-27T22:01:50.993Z,60.70
2022-12-27T22:04:21.925Z,64.93
2022-12-27T22:06:50.910Z,66.86
2022-12-27T22:09:19.846Z,65.18
2022-12-27T22:11:49.082Z,58.72
2022-12-27T22:14:21.793Z,55.07
2022-12-27T22:16:52.011Z,54.63
2022-12-27T22:19:20.689Z,55.82
2022-12-27T22:21:49.310Z,56.71
2022-12-27T22:24:19.886Z,58.05
2022-12-27T22:26:50.424Z,58.79
2022-12-27T22:29:19.667Z,60.13
2022-12-27T22:31:48.202Z,65.15
2022-12-27T22:34:16.800Z,67.08
2022-12-27T22:36:45.329Z,62.91
2022-12-27T22:39:13.877Z,58.53
2022-12-27T22:41:42.375Z,55.38
2022-12-27T22:44:13.662Z,55.87
2022-12-27T22:47:25.257Z,56.73
2022-12-27T22:49:31.799Z,57.28
2022-12-27T22:52:00.351Z,59.23
2022-12-27T22:55:03.132Z,59.94
2022-12-27T22:57:17.670Z,65.73
2022-12-27T22:59:46.135Z,67.93
2022-12-27T23:02:15.289Z,64.06
2022-12-27T23:04:44.525Z,58.23
2022-12-27T23:07:13.114Z,54.20
2022-12-27T23:09:43.594Z,54.35
2022-12-27T23:12:13.579Z,56.33
2022-12-27T23:14:42.159Z,57.56
2022-12-27T23:17:10.618Z,57.68
2022-12-27T23:19:39.506Z,59.16
2022-12-27T23:22:08.149Z,61.06
2022-12-27T23:24:36.644Z,65.22
2022-12-27T23:27:05.176Z,65.59
2022-12-27T23:29:33.666Z,63.14
2022-12-27T23:32:02.330Z,58.75
2022-12-27T23:34:30.937Z,55.23
2022-12-27T23:37:00.065Z,56.50
2022-12-27T23:39:28.741Z,58.13
2022-12-27T23:41:57.300Z,59.68
2022-12-27T23:44:33.902Z,59.57
2022-12-27T23:47:05.494Z,63.56
2022-12-27T23:49:34.757Z,67.14
2022-12-27T23:52:03.434Z,63.02
2022-12-27T23:54:32.030Z,57.28
2022-12-27T23:57:19.413Z,53.54
2022-12-27T23:59:49.451Z,53.53
